createdAt,value
2018-06-16T00:02:01.445Z,13.4
2018-06-16T00:07:01.541Z,13.6
2018-06-16T00:13:01.427Z,13.8
2018-06-16T00:18:01.596Z,14.1
2018-06-16T00:23:01.409Z,14.2
2018-06-16T00:28:01.479Z,14.5
2018-06-16T00:33:01.412Z,14.3
2018-06-16T00:38:01.611Z,13.9
2018-06-16T00:43:01.390Z,13.7
2018-06-16T00:48:01.461Z,13.6
2018-06-16T00:53:01.625Z,13.0
2018-06-16T00:58:01.538Z,13.4
2018-06-16T01:03:06.404Z,13.5
2018-06-16T01:08:01.440Z,13.6
2018-06-16T01:13:01.315Z,13.6
2018-06-16T01:18:01.422Z,14.0
2018-06-16T01:23:01.415Z,13.4
2018-06-16T01:28:01.504Z,13.6
2018-06-16T01:33:01.375Z,13.2
2018-06-16T01:43:01.508Z,12.9
2018-06-16T01:48:01.439Z,13.1
2018-06-16T01:53:01.341Z,13.3
2018-06-16T01:58:01.444Z,14.0
2018-06-16T02:03:01.370Z,14.2
2018-06-16T02:08:01.592Z,13.7
2018-06-16T02:13:01.351Z,13.7
2018-06-16T02:19:01.437Z,13.2
2018-06-16T02:24:01.398Z,12.8
2018-06-16T02:29:01.442Z,12.5
2018-06-16T02:34:01.343Z,12.8
2018-06-16T02:39:03.111Z,12.7
2018-06-16T02:44:01.377Z,12.3
2018-06-16T02:49:01.462Z,11.6
2018-06-16T02:54:01.373Z,11.2
2018-06-16T02:59:01.348Z,10.6
2018-06-16T03:04:01.376Z,9.6
2018-06-16T03:09:01.381Z,9.0
2018-06-16T03:14:01.444Z,8.8
2018-06-16T03:19:01.387Z,8.2
2018-06-16T03:24:01.406Z,8.1
2018-06-16T03:29:01.517Z,8.5
2018-06-16T03:34:01.369Z,9.1
2018-06-16T03:39:03.102Z,9.2
2018-06-16T03:49:01.353Z,9.4
2018-06-16T03:54:01.344Z,9.2
2018-06-16T03:59:01.375Z,8.9
2018-06-16T04:04:01.350Z,8.4
2018-06-16T04:09:01.510Z,7.7
2018-06-16T04:14:01.448Z,7.9
2018-06-16T04:20:01.437Z,8.1
2018-06-16T04:25:01.375Z,7.8
2018-06-16T04:30:01.376Z,8.2
2018-06-16T04:35:01.354Z,8.3
2018-06-16T04:40:01.508Z,8.1
2018-06-16T04:45:01.448Z,7.9
2018-06-16T04:50:01.551Z,8.2
2018-06-16T04:56:01.382Z,8.0
2018-06-16T05:01:01.893Z,8.2
2018-06-16T05:06:01.378Z,8.2
2018-06-16T05:11:01.059Z,8.0
2018-06-16T05:30:01.121Z,11.0
2018-06-16T05:35:01.023Z,11.0
2018-06-16T05:40:01.123Z,10.3
2018-06-16T05:45:01.031Z,10.0
2018-06-16T05:50:01.129Z,10.2
2018-06-16T05:55:01.070Z,9.7
2018-06-16T06:00:01.248Z,9.4
2018-06-16T06:10:01.107Z,8.6
2018-06-16T06:15:01.011Z,8.1
2018-06-16T06:20:01.268Z,8.0
2018-06-16T06:25:01.082Z,7.9
2018-06-16T06:30:01.181Z,7.8
2018-06-16T06:35:01.052Z,8.5
2018-06-16T06:40:01.126Z,8.6
2018-06-16T06:45:01.064Z,9.4
2018-06-16T06:50:01.119Z,10.0
2018-06-16T06:55:01.060Z,11.0
2018-06-16T07:00:01.261Z,12.0
2018-06-16T07:05:01.084Z,12.7
2018-06-16T07:10:01.141Z,12.8
2018-06-16T07:15:01.070Z,12.7
2018-06-16T07:20:01.133Z,12.8
2018-06-16T07:25:01.096Z,12.0
2018-06-16T07:30:01.213Z,12.2
2018-06-16T07:35:01.082Z,12.4
2018-06-16T07:40:01.141Z,12.7
2018-06-16T07:45:01.141Z,13.3
2018-06-16T07:50:01.143Z,13.8
2018-06-16T08:00:01.208Z,14.0
2018-06-16T08:05:01.083Z,14.3
2018-06-16T08:15:01.212Z,14.1
2018-06-16T08:20:01.170Z,14.4
2018-06-16T08:25:01.117Z,14.5
2018-06-16T08:30:01.101Z,14.5
2018-06-16T08:35:01.165Z,14.6
2018-06-16T08:40:01.219Z,14.8
2018-06-16T08:45:01.062Z,14.5
2018-06-16T08:50:01.162Z,14.7
2018-06-16T08:55:01.104Z,14.6
2018-06-16T09:00:02.633Z,14.7
2018-06-16T09:10:01.230Z,15.4
2018-06-16T09:15:01.128Z,15.1
2018-06-16T09:20:01.197Z,15.2
2018-06-16T09:30:01.181Z,15.8
2018-06-16T09:35:01.119Z,15.8
2018-06-16T09:40:01.313Z,16.2
2018-06-16T09:45:01.091Z,15.8
2018-06-16T09:50:01.188Z,15.4
2018-06-16T09:55:01.096Z,15.2
2018-06-16T10:00:01.196Z,15.5
2018-06-16T10:05:01.133Z,15.4
2018-06-16T10:15:01.215Z,16.5
2018-06-16T10:20:01.172Z,17.4
2018-06-16T10:25:01.167Z,17.5
2018-06-16T10:30:01.205Z,18.0
2018-06-16T10:35:01.144Z,18.4
2018-06-16T10:40:01.270Z,18.7
2018-06-16T10:45:01.152Z,18.0
2018-06-16T10:50:01.209Z,18.4
2018-06-16T10:55:01.442Z,18.7
2018-06-16T11:00:01.262Z,19.6
2018-06-16T11:05:01.157Z,20.6
2018-06-16T11:10:01.318Z,22.0
2018-06-16T11:15:01.196Z,23.5
2018-06-16T11:20:01.256Z,24.4
2018-06-16T11:25:01.153Z,24.4
2018-06-16T11:30:01.228Z,25.8
2018-06-16T11:35:01.151Z,26.9
2018-06-16T11:45:01.234Z,26.4
2018-06-16T11:50:01.259Z,24.6
2018-06-16T11:55:01.463Z,20.8
2018-06-16T12:00:01.266Z,16.7
2018-06-16T12:05:01.174Z,12.9
2018-06-16T12:10:01.312Z,9.9
2018-06-16T12:15:01.182Z,8.8
2018-06-16T12:20:01.342Z,8.6
2018-06-16T12:30:01.348Z,8.9
2018-06-16T12:35:01.187Z,9.1
2018-06-16T12:40:01.323Z,9.2
2018-06-16T12:45:01.254Z,9.6
2018-06-16T12:50:01.194Z,9.6
2018-06-16T12:55:01.207Z,10.5
2018-06-16T13:00:01.337Z,12.4
2018-06-16T13:05:01.200Z,13.4
2018-06-16T13:10:01.335Z,14.3
2018-06-16T13:15:01.172Z,15.8
2018-06-16T13:20:01.281Z,15.8
2018-06-16T13:25:01.207Z,16.4
2018-06-16T13:30:01.279Z,16.6
2018-06-16T13:35:01.290Z,17.1
2018-06-16T13:40:01.278Z,16.8
2018-06-16T13:45:01.225Z,16.9
2018-06-16T13:50:01.421Z,16.1
2018-06-16T13:55:01.252Z,16.9
2018-06-16T14:00:01.354Z,17.7
2018-06-16T14:05:01.227Z,18.8
2018-06-16T14:10:01.275Z,21.1
2018-06-16T14:15:01.260Z,23.0
2018-06-16T14:20:01.364Z,24.0
2018-06-16T14:25:01.292Z,24.5
2018-06-16T14:30:01.305Z,25.4
2018-06-16T14:35:01.304Z,25.8
2018-06-16T14:40:01.305Z,26.6
2018-06-16T14:45:01.222Z,27.2
2018-06-16T14:50:01.267Z,27.5
2018-06-16T14:55:01.248Z,27.8
2018-06-16T15:00:01.323Z,27.6
2018-06-16T15:05:01.605Z,27.6
2018-06-16T15:10:01.320Z,28.2
2018-06-16T15:15:01.239Z,27.8
2018-06-16T15:20:01.406Z,28.2
2018-06-16T15:25:01.284Z,28.5
2018-06-16T15:30:01.334Z,28.4
2018-06-16T15:35:01.271Z,28.2
2018-06-16T15:40:01.329Z,29.7
2018-06-16T15:45:01.264Z,30.1
2018-06-16T15:50:01.397Z,30.1
2018-06-16T15:55:01.398Z,29.5
2018-06-16T16:00:01.475Z,28.8
2018-06-16T16:05:01.288Z,27.2
2018-06-16T16:10:01.351Z,26.6
2018-06-16T16:15:01.281Z,25.5
2018-06-16T16:20:01.569Z,25.5
2018-06-16T16:25:01.347Z,25.6
2018-06-16T16:30:01.739Z,26.0
2018-06-16T16:35:01.266Z,25.2
2018-06-16T16:40:01.290Z,25.9
2018-06-16T16:45:01.296Z,26.5
2018-06-16T16:50:01.489Z,27.0
2018-06-16T16:55:01.299Z,28.1
2018-06-16T17:00:01.380Z,29.6
2018-06-16T17:05:01.308Z,30.0
2018-06-16T17:10:01.370Z,30.5
2018-06-16T17:15:01.294Z,31.2
2018-06-16T17:20:01.528Z,31.6
2018-06-16T17:25:01.307Z,32.1
2018-06-16T17:30:01.398Z,33.2
2018-06-16T17:40:01.507Z,33.3
2018-06-16T17:45:01.389Z,32.8
2018-06-16T17:50:01.537Z,32.5
2018-06-16T17:55:01.317Z,32.0
2018-06-16T18:00:01.841Z,32.7
2018-06-16T18:05:01.584Z,33.3
2018-06-16T18:10:01.432Z,34.0
2018-06-16T18:15:01.431Z,34.7
2018-06-16T18:20:01.554Z,37.0
2018-06-16T18:25:01.330Z,36.9
2018-06-16T18:30:01.332Z,37.1
2018-06-16T18:35:01.336Z,36.9
2018-06-16T18:40:01.415Z,36.7
2018-06-16T18:45:01.351Z,35.0
2018-06-16T18:50:01.485Z,35.2
2018-06-16T18:55:01.350Z,35.4
2018-06-16T19:00:01.425Z,36.1
2018-06-16T19:05:01.352Z,36.6
2018-06-16T19:10:01.417Z,37.0
2018-06-16T19:15:01.358Z,37.3
2018-06-16T19:20:01.484Z,37.6
2018-06-16T19:25:01.356Z,37.7
2018-06-16T19:30:01.493Z,37.9
2018-06-16T19:35:01.367Z,37.9
2018-06-16T19:40:01.432Z,37.8
2018-06-16T19:45:01.505Z,37.7
2018-06-16T19:50:01.562Z,37.8
2018-06-16T19:55:01.372Z,38.0
2018-06-16T20:00:01.535Z,38.0
2018-06-16T20:05:01.353Z,38.2
2018-06-16T20:15:01.397Z,37.8
2018-06-16T20:20:01.452Z,37.4
2018-06-16T20:25:02.412Z,37.9
2018-06-16T20:30:02.348Z,37.2
2018-06-16T20:40:01.535Z,37.4
2018-06-16T20:45:01.412Z,37.1
2018-06-16T20:50:01.477Z,36.8
2018-06-16T20:55:01.385Z,37.6
2018-06-16T21:00:01.510Z,37.0
2018-06-16T21:05:01.388Z,38.0
2018-06-16T21:10:01.388Z,38.8
2018-06-16T21:15:01.369Z,38.6
2018-06-16T21:20:01.497Z,37.8
2018-06-16T21:25:01.371Z,37.7
2018-06-16T21:30:01.446Z,36.7
2018-06-16T21:35:01.648Z,36.0
2018-06-16T21:40:01.572Z,36.2
2018-06-16T21:45:01.384Z,37.2
2018-06-16T21:50:01.579Z,38.4
2018-06-16T21:55:01.367Z,38.9
2018-06-16T22:00:01.552Z,39.3
2018-06-16T22:05:01.468Z,39.5
2018-06-16T22:10:01.382Z,39.5
2018-06-16T22:15:01.353Z,39.2
2018-06-16T22:20:02.216Z,39.6
2018-06-16T22:25:01.414Z,39.4
2018-06-16T22:31:01.536Z,39.6
2018-06-16T22:36:01.371Z,39.7
2018-06-16T22:41:01.473Z,39.4
2018-06-16T22:46:01.411Z,39.2
2018-06-16T22:51:01.478Z,40.0
2018-06-16T22:56:01.456Z,40.9
2018-06-16T23:01:01.538Z,41.4
2018-06-16T23:06:01.340Z,42.1
2018-06-16T23:11:01.467Z,43.0
2018-06-16T23:16:01.369Z,43.1
2018-06-16T23:21:01.465Z,42.7
2018-06-16T23:26:01.403Z,42.2
2018-06-16T23:31:01.641Z,41.9
2018-06-16T23:36:01.352Z,41.7
2018-06-16T23:41:01.452Z,41.7
2018-06-16T23:46:01.369Z,42.2
2018-06-16T23:51:01.372Z,42.6
2018-06-16T23:56:01.373Z,43.5
